createdAt,value
2019-03-21T00:01:39.181Z,16.10
2019-03-21T00:04:13.880Z,27.17
2019-03-21T00:06:44.392Z,13.47
2019-03-21T00:09:16.369Z,13.13
2019-03-21T00:12:06.265Z,14.27
2019-03-21T00:14:59.390Z,11.13
2019-03-21T00:17:49.971Z,14.47
2019-03-21T00:20:19.900Z,16.37
2019-03-21T00:23:08.972Z,25.07
2019-03-21T00:25:39.047Z,17.53
2019-03-21T00:28:27.957Z,15.77
2019-03-21T00:30:58.110Z,17.63
2019-03-21T00:33:39.751Z,17.57
2019-03-21T00:38:51.725Z,12.07
2019-03-21T00:41:21.655Z,17.53
2019-03-21T00:43:51.596Z,15.67
2019-03-21T00:46:24.442Z,16.60
2019-03-21T00:48:54.376Z,18.23
2019-03-21T00:51:24.346Z,15.27
2019-03-21T00:53:54.306Z,16.33
2019-03-21T00:56:24.228Z,16.23
2019-03-21T00:58:54.170Z,16.90
2019-03-21T01:03:59.876Z,21.27
2019-03-21T01:06:30.209Z,15.23
2019-03-21T01:09:00.116Z,14.00
2019-03-21T01:11:30.017Z,14.13
2019-03-21T01:14:00.308Z,16.57
2019-03-21T01:19:30.190Z,12.57
2019-03-21T01:22:02.362Z,10.83
2019-03-21T01:24:32.366Z,16.10
2019-03-21T01:27:02.567Z,14.63
2019-03-21T01:29:32.504Z,16.57
2019-03-21T01:32:02.913Z,15.30
2019-03-21T01:34:33.080Z,22.93
2019-03-21T01:37:07.062Z,16.17
2019-03-21T01:39:37.180Z,19.23
2019-03-21T01:42:07.539Z,13.03
2019-03-21T01:44:56.607Z,20.57
2019-03-21T01:47:37.758Z,12.97
2019-03-21T01:50:08.625Z,15.43
2019-03-21T01:52:38.554Z,21.07
2019-03-21T01:55:09.423Z,11.60
2019-03-21T02:00:18.708Z,19.23
2019-03-21T02:05:25.687Z,8.67
2019-03-21T02:08:07.113Z,15.37
2019-03-21T02:10:37.055Z,15.33
2019-03-21T02:13:07.017Z,20.07
2019-03-21T02:18:13.801Z,17.63
2019-03-21T02:20:43.754Z,20.30
2019-03-21T02:23:13.894Z,18.47
2019-03-21T02:25:44.056Z,12.57
2019-03-21T02:28:14.063Z,16.17
2019-03-21T02:30:44.032Z,18.30
2019-03-21T02:33:34.530Z,17.93
2019-03-21T02:36:05.177Z,14.83
2019-03-21T02:38:37.130Z,20.00
2019-03-21T02:41:08.286Z,17.97
2019-03-21T02:43:38.703Z,15.70
2019-03-21T02:46:08.629Z,16.00
2019-03-21T02:48:38.626Z,18.93
2019-03-21T02:51:08.760Z,21.20
2019-03-21T02:53:38.724Z,16.80
2019-03-21T02:58:46.283Z,16.63
2019-03-21T03:01:26.766Z,15.50
2019-03-21T03:03:57.626Z,13.17
2019-03-21T03:06:27.631Z,22.20
2019-03-21T03:08:58.041Z,18.20
2019-03-21T03:11:46.937Z,17.07
2019-03-21T03:14:27.470Z,15.97
2019-03-21T03:16:57.574Z,22.87
2019-03-21T03:19:27.537Z,23.30
2019-03-21T03:21:57.519Z,18.13
2019-03-21T03:24:29.860Z,20.50
2019-03-21T03:27:01.181Z,20.00
2019-03-21T03:29:31.198Z,21.47
2019-03-21T03:32:20.937Z,18.30
2019-03-21T03:34:50.864Z,18.20
2019-03-21T03:37:20.818Z,12.73
2019-03-21T03:39:50.824Z,15.77
2019-03-21T03:42:59.735Z,14.50
2019-03-21T03:45:37.763Z,19.47
2019-03-21T03:48:04.109Z,17.23
2019-03-21T03:50:34.054Z,19.57
2019-03-21T03:53:04.301Z,20.87
2019-03-21T03:55:34.540Z,15.33
2019-03-21T03:58:06.276Z,17.10
2019-03-21T04:00:36.273Z,20.70
2019-03-21T04:03:06.200Z,21.90
2019-03-21T04:05:36.152Z,16.60
2019-03-21T04:08:06.322Z,22.30
2019-03-21T04:10:38.079Z,20.93
2019-03-21T04:13:08.011Z,18.67
2019-03-21T04:15:51.623Z,17.87
2019-03-21T04:18:10.023Z,20.57
2019-03-21T04:20:54.632Z,15.50
2019-03-21T04:25:52.184Z,15.43
2019-03-21T04:28:24.244Z,19.83
2019-03-21T04:30:54.156Z,21.43
2019-03-21T04:33:35.167Z,17.40
2019-03-21T04:36:07.506Z,14.27
2019-03-21T04:38:39.564Z,13.77
2019-03-21T04:41:09.485Z,19.20
2019-03-21T04:43:58.319Z,14.47
2019-03-21T04:46:28.406Z,16.67
2019-03-21T04:48:58.541Z,18.60
2019-03-21T04:51:28.655Z,13.67
2019-03-21T04:54:06.139Z,15.20
2019-03-21T04:56:36.161Z,10.77
2019-03-21T04:59:24.850Z,12.77
2019-03-21T05:01:54.971Z,10.87
2019-03-21T05:04:28.481Z,9.13
2019-03-21T05:06:58.555Z,9.70
2019-03-21T05:09:31.460Z,10.57
2019-03-21T05:12:01.424Z,9.30
2019-03-21T05:14:34.825Z,14.07
2019-03-21T05:17:23.623Z,9.77
2019-03-21T05:19:53.688Z,6.80
2019-03-21T05:22:23.798Z,9.77
2019-03-21T05:24:53.795Z,6.53
2019-03-21T05:27:23.770Z,6.73
2019-03-21T05:29:53.707Z,6.40
2019-03-21T05:32:23.691Z,7.27
2019-03-21T05:35:04.139Z,8.30
2019-03-21T05:40:16.510Z,3.40
2019-03-21T05:43:07.129Z,7.97
2019-03-21T05:48:15.534Z,5.23
2019-03-21T05:50:45.667Z,3.93
2019-03-21T05:53:15.887Z,6.73
2019-03-21T05:56:24.947Z,10.47
2019-03-21T05:58:54.892Z,8.13
2019-03-21T06:01:35.162Z,6.70
2019-03-21T06:04:05.194Z,6.97
2019-03-21T06:07:12.628Z,4.77
2019-03-21T06:09:42.754Z,4.87
2019-03-21T06:12:14.841Z,3.77
2019-03-21T06:14:49.306Z,3.53
2019-03-21T06:17:19.270Z,2.47
2019-03-21T06:20:28.362Z,4.10
2019-03-21T06:23:21.850Z,3.33
2019-03-21T06:26:17.506Z,2.57
2019-03-21T06:28:47.432Z,2.10
2019-03-21T06:31:17.376Z,3.27
2019-03-21T06:36:27.459Z,1.73
2019-03-21T06:41:39.129Z,1.90
2019-03-21T06:44:09.061Z,3.70
2019-03-21T06:46:48.968Z,1.50
2019-03-21T06:51:49.212Z,2.80
2019-03-21T06:54:19.302Z,3.20
2019-03-21T06:56:49.268Z,1.40
2019-03-21T06:59:19.199Z,2.27
2019-03-21T07:01:49.254Z,1.30
2019-03-21T07:04:19.187Z,2.13
2019-03-21T07:06:50.616Z,1.30
2019-03-21T07:09:20.640Z,1.50
2019-03-21T07:11:50.588Z,1.43
2019-03-21T07:14:20.478Z,1.20
2019-03-21T07:17:00.088Z,1.63
2019-03-21T07:19:37.167Z,1.30
2019-03-21T07:22:07.112Z,1.53
2019-03-21T07:24:37.050Z,1.63
2019-03-21T07:27:06.946Z,1.67
2019-03-21T07:29:36.949Z,1.10
2019-03-21T07:32:06.860Z,1.83
2019-03-21T07:34:36.861Z,1.13
2019-03-21T07:39:42.619Z,1.93
2019-03-21T07:44:54.181Z,1.97
2019-03-21T07:47:35.525Z,2.17
2019-03-21T07:50:44.743Z,1.50
2019-03-21T07:53:15.055Z,1.20
2019-03-21T07:55:45.416Z,1.47
2019-03-21T07:58:18.199Z,2.57
2019-03-21T08:00:48.298Z,1.30
2019-03-21T08:03:18.234Z,1.47
2019-03-21T08:05:48.702Z,1.97
2019-03-21T08:08:18.602Z,1.83
2019-03-21T08:10:48.636Z,1.27
2019-03-21T08:13:34.430Z,1.37
2019-03-21T08:15:53.452Z,1.70
2019-03-21T08:18:23.453Z,1.30
2019-03-21T08:20:58.605Z,1.50
2019-03-21T08:23:25.140Z,2.07
2019-03-21T08:25:55.076Z,1.90
2019-03-21T08:28:25.683Z,1.40
2019-03-21T08:31:33.281Z,1.97
2019-03-21T08:34:03.263Z,1.63
2019-03-21T08:36:33.264Z,1.80
2019-03-21T08:39:03.228Z,2.17
2019-03-21T08:41:33.188Z,1.50
2019-03-21T08:44:03.178Z,1.80
2019-03-21T08:46:33.302Z,2.63
2019-03-21T08:49:03.218Z,1.77
2019-03-21T08:51:33.253Z,2.90
2019-03-21T08:56:38.256Z,2.30
2019-03-21T09:02:02.613Z,2.33
2019-03-21T09:04:32.810Z,3.33
2019-03-21T09:07:05.337Z,1.60
2019-03-21T09:09:35.328Z,1.80
2019-03-21T09:12:05.274Z,12.70
2019-03-21T09:14:35.362Z,2.00
2019-03-21T09:17:16.983Z,1.73
2019-03-21T09:19:47.157Z,3.80
2019-03-21T09:22:36.014Z,2.27
2019-03-21T09:25:06.376Z,3.30
2019-03-21T09:27:36.306Z,3.73
2019-03-21T09:30:07.395Z,2.33
2019-03-21T09:32:37.334Z,1.90
2019-03-21T09:35:07.793Z,2.23
2019-03-21T09:43:09.381Z,2.30
2019-03-21T09:45:39.369Z,1.80
2019-03-21T09:48:09.326Z,8.77
2019-03-21T09:53:17.229Z,2.90
2019-03-21T09:55:58.392Z,2.50
2019-03-21T09:58:28.466Z,2.77
2019-03-21T10:00:58.409Z,2.43
2019-03-21T10:03:28.392Z,3.63
2019-03-21T10:05:58.463Z,2.47
2019-03-21T10:08:28.374Z,3.03
2019-03-21T10:11:01.356Z,2.40
2019-03-21T10:13:31.351Z,2.90
2019-03-21T10:16:01.589Z,2.70
2019-03-21T10:18:31.625Z,4.77
2019-03-21T10:21:01.675Z,4.43
2019-03-21T10:23:31.660Z,4.63
2019-03-21T10:26:02.012Z,7.60
2019-03-21T10:28:32.039Z,2.80
2019-03-21T10:31:02.112Z,6.60
2019-03-21T10:33:32.130Z,23.80
2019-03-21T10:36:02.188Z,4.57
2019-03-21T10:38:32.193Z,2.90
2019-03-21T10:41:05.780Z,2.90
2019-03-21T10:43:35.885Z,3.00
2019-03-21T10:46:05.884Z,6.00
2019-03-21T10:48:35.950Z,5.60
2019-03-21T10:51:06.082Z,3.40
2019-03-21T10:53:38.876Z,2.10
2019-03-21T10:56:10.583Z,4.23
2019-03-21T10:58:52.076Z,3.03
2019-03-21T11:02:07.157Z,2.50
2019-03-21T11:04:33.381Z,2.83
2019-03-21T11:07:01.718Z,2.23
2019-03-21T11:09:32.729Z,2.83
2019-03-21T11:12:02.757Z,2.17
2019-03-21T11:14:33.556Z,3.23
2019-03-21T11:17:03.655Z,2.23
2019-03-21T11:19:33.994Z,2.90
2019-03-21T11:22:06.631Z,2.30
2019-03-21T11:24:36.527Z,3.57
2019-03-21T11:27:06.481Z,2.40
2019-03-21T11:29:36.667Z,2.67
2019-03-21T11:34:56.409Z,4.20
2019-03-21T11:37:14.080Z,1.57
2019-03-21T11:39:44.244Z,1.73
2019-03-21T11:42:14.313Z,3.77
2019-03-21T11:44:44.495Z,4.00
2019-03-21T11:47:14.446Z,1.60
2019-03-21T11:49:44.387Z,1.67
2019-03-21T11:52:18.399Z,1.93
2019-03-21T11:54:46.269Z,4.20
2019-03-21T11:57:16.377Z,3.80
2019-03-21T11:59:56.837Z,2.80
2019-03-21T12:02:27.603Z,2.43
2019-03-21T12:04:57.495Z,3.07
2019-03-21T12:07:27.755Z,3.17
2019-03-21T12:09:57.699Z,1.87
2019-03-21T12:12:28.329Z,1.67
2019-03-21T12:15:12.512Z,2.87
2019-03-21T12:17:30.152Z,3.10
2019-03-21T12:20:00.097Z,1.60
2019-03-21T12:22:31.964Z,1.50
2019-03-21T12:25:02.148Z,2.97
2019-03-21T12:27:38.531Z,2.27
2019-03-21T12:30:29.248Z,3.27
2019-03-21T12:32:59.448Z,1.43
2019-03-21T12:35:29.401Z,2.10
2019-03-21T12:37:59.449Z,5.33
2019-03-21T12:40:29.509Z,4.70
2019-03-21T12:42:59.442Z,2.23
2019-03-21T12:45:29.367Z,4.00
2019-03-21T12:48:18.136Z,2.30
2019-03-21T12:50:48.105Z,3.17
2019-03-21T12:53:18.077Z,2.27
2019-03-21T12:55:48.032Z,2.27
2019-03-21T12:58:36.792Z,2.93
2019-03-21T13:01:07.276Z,4.67
2019-03-21T13:03:37.209Z,4.17
2019-03-21T13:06:07.172Z,2.37
2019-03-21T13:08:37.196Z,4.70
2019-03-21T13:11:07.447Z,9.63
2019-03-21T13:13:51.187Z,14.77
2019-03-21T13:16:09.329Z,2.27
2019-03-21T13:18:39.490Z,2.63
2019-03-21T13:21:09.408Z,10.93
2019-03-21T13:23:39.428Z,4.43
2019-03-21T13:26:09.363Z,3.27
2019-03-21T13:28:39.356Z,3.77
2019-03-21T13:36:31.893Z,2.80
2019-03-21T13:39:02.017Z,3.97
2019-03-21T13:41:32.050Z,6.20
2019-03-21T13:44:02.169Z,5.50
2019-03-21T13:46:32.316Z,3.27
2019-03-21T13:54:30.931Z,4.17
2019-03-21T13:59:54.955Z,4.13
2019-03-21T14:02:24.892Z,6.27
2019-03-21T14:04:54.871Z,3.57
2019-03-21T14:07:24.911Z,5.47
2019-03-21T14:09:54.883Z,4.83
2019-03-21T14:12:24.939Z,3.80
2019-03-21T14:14:54.876Z,4.63
2019-03-21T14:17:24.828Z,4.90
2019-03-21T14:19:54.789Z,5.33
2019-03-21T14:22:25.059Z,4.57
2019-03-21T14:24:54.987Z,4.20
2019-03-21T14:27:26.062Z,5.50
2019-03-21T14:32:32.160Z,6.13
2019-03-21T14:35:13.165Z,3.27
2019-03-21T14:40:38.559Z,4.23
2019-03-21T14:43:08.469Z,5.70
2019-03-21T14:45:38.914Z,7.13
2019-03-21T14:48:10.420Z,6.57
2019-03-21T14:50:40.421Z,3.67
2019-03-21T14:53:10.425Z,4.57
2019-03-21T14:58:16.929Z,4.97
2019-03-21T15:00:58.202Z,7.73
2019-03-21T15:03:28.245Z,6.53
2019-03-21T15:05:58.184Z,4.73
2019-03-21T15:08:28.127Z,6.50
2019-03-21T15:11:17.614Z,7.67
2019-03-21T15:13:59.654Z,5.00
2019-03-21T15:16:34.341Z,7.17
2019-03-21T15:19:07.430Z,6.23
2019-03-21T15:21:37.375Z,4.17
2019-03-21T15:24:07.322Z,5.57
2019-03-21T15:26:39.367Z,5.07
2019-03-21T15:29:09.328Z,7.37
2019-03-21T15:31:39.279Z,4.73
2019-03-21T15:34:09.414Z,5.83
2019-03-21T15:36:40.572Z,9.07
2019-03-21T15:39:10.532Z,5.13
2019-03-21T15:41:43.406Z,4.63
2019-03-21T15:44:13.498Z,5.93
2019-03-21T15:46:43.439Z,7.57
2019-03-21T15:49:32.285Z,4.63
2019-03-21T15:52:16.095Z,9.17
2019-03-21T15:54:47.888Z,7.37
2019-03-21T15:57:17.805Z,5.20
2019-03-21T15:59:47.731Z,7.03
2019-03-21T16:02:17.756Z,3.60
2019-03-21T16:04:47.715Z,7.90
2019-03-21T16:07:17.707Z,7.13
2019-03-21T16:09:47.702Z,6.87
2019-03-21T16:12:17.669Z,6.17
2019-03-21T16:14:49.358Z,5.13
2019-03-21T16:17:19.439Z,5.67
2019-03-21T16:19:49.364Z,8.60
2019-03-21T16:22:19.405Z,7.80
2019-03-21T16:24:54.068Z,9.93
2019-03-21T16:27:23.957Z,6.70
2019-03-21T16:29:53.980Z,7.77
2019-03-21T16:32:24.039Z,5.20
2019-03-21T16:35:06.723Z,8.57
2019-03-21T16:37:36.673Z,7.53
2019-03-21T16:40:07.265Z,9.77
2019-03-21T16:42:37.290Z,5.00
2019-03-21T16:45:46.395Z,9.50
2019-03-21T16:48:16.489Z,6.20
2019-03-21T16:50:49.955Z,8.53
2019-03-21T16:53:33.099Z,10.73
2019-03-21T16:56:03.203Z,7.90
2019-03-21T16:58:33.161Z,5.73
2019-03-21T17:01:03.311Z,3.47
2019-03-21T17:03:33.229Z,4.77
2019-03-21T17:06:03.346Z,8.57
2019-03-21T17:08:35.682Z,9.33
2019-03-21T17:11:24.403Z,9.07
2019-03-21T17:13:54.439Z,6.43
2019-03-21T17:16:24.408Z,8.40
2019-03-21T17:18:54.315Z,10.67
2019-03-21T17:21:24.357Z,6.63
2019-03-21T17:23:54.294Z,6.90
2019-03-21T17:26:24.241Z,5.33
2019-03-21T17:28:54.207Z,7.77
2019-03-21T17:31:24.147Z,8.43
2019-03-21T17:33:54.092Z,5.87
2019-03-21T17:36:24.101Z,11.13
2019-03-21T17:38:54.056Z,10.23
2019-03-21T17:41:24.003Z,7.63
2019-03-21T17:43:54.026Z,10.50
2019-03-21T17:46:24.400Z,6.30
2019-03-21T17:48:54.395Z,7.97
2019-03-21T17:51:24.411Z,6.77
2019-03-21T17:53:54.391Z,8.93
2019-03-21T17:56:24.986Z,6.63
2019-03-21T17:58:54.944Z,6.90
2019-03-21T18:01:24.964Z,6.53
2019-03-21T18:03:54.987Z,5.07
2019-03-21T18:06:25.035Z,4.83
2019-03-21T18:08:54.959Z,9.00
2019-03-21T18:11:24.964Z,10.57
2019-03-21T18:13:54.903Z,8.73
2019-03-21T18:16:24.898Z,6.57
2019-03-21T18:18:54.824Z,8.53
2019-03-21T18:21:24.824Z,7.77
2019-03-21T18:23:54.765Z,5.80
2019-03-21T18:26:24.704Z,6.87
2019-03-21T18:28:54.746Z,5.80
2019-03-21T18:31:24.661Z,6.57
2019-03-21T18:33:54.572Z,11.00
2019-03-21T18:36:24.637Z,7.97
2019-03-21T18:38:59.494Z,6.67
2019-03-21T18:41:26.335Z,10.43
2019-03-21T18:43:56.249Z,9.47
2019-03-21T18:46:26.374Z,4.87
2019-03-21T18:48:56.831Z,9.33
2019-03-21T18:51:26.768Z,7.27
2019-03-21T18:53:56.781Z,7.97
2019-03-21T18:59:22.360Z,9.87
2019-03-21T19:01:58.361Z,9.03
2019-03-21T19:04:24.182Z,10.20
2019-03-21T19:06:54.147Z,7.93
2019-03-21T19:09:24.192Z,10.37
2019-03-21T19:11:54.110Z,9.03
2019-03-21T19:14:26.040Z,6.50
2019-03-21T19:16:56.099Z,7.83
2019-03-21T19:19:26.036Z,10.43
2019-03-21T19:21:55.982Z,10.43
2019-03-21T19:24:25.991Z,8.50
2019-03-21T19:26:55.918Z,10.50
2019-03-21T19:32:15.246Z,9.30
2019-03-21T19:34:45.262Z,9.50
2019-03-21T19:37:15.234Z,10.33
2019-03-21T19:39:45.289Z,6.40
2019-03-21T19:42:15.275Z,12.73
2019-03-21T19:44:45.203Z,11.33
2019-03-21T19:47:23.873Z,10.43
2019-03-21T19:49:47.199Z,9.50
2019-03-21T19:52:18.519Z,7.67
2019-03-21T19:57:23.601Z,9.13
2019-03-21T20:05:17.165Z,11.03
2019-03-21T20:07:47.448Z,8.57
2019-03-21T20:10:17.657Z,8.27
2019-03-21T20:12:47.678Z,5.27
2019-03-21T20:15:17.854Z,9.60
2019-03-21T20:17:47.783Z,8.67
2019-03-21T20:20:20.987Z,8.97
2019-03-21T20:22:50.922Z,6.87
2019-03-21T20:25:20.894Z,7.37
2019-03-21T20:30:26.733Z,8.50
2019-03-21T20:35:37.997Z,8.40
2019-03-21T20:38:18.999Z,6.67
2019-03-21T20:40:48.984Z,6.90
2019-03-21T20:43:18.979Z,12.10
2019-03-21T20:48:35.829Z,13.10
2019-03-21T20:51:05.796Z,8.70
2019-03-21T20:53:35.865Z,5.17
2019-03-21T20:56:05.911Z,6.53
2019-03-21T20:58:35.906Z,7.00
2019-03-21T21:01:06.211Z,7.83
2019-03-21T21:03:36.280Z,7.73
2019-03-21T21:06:06.189Z,6.57
2019-03-21T21:08:36.139Z,10.47
2019-03-21T21:13:41.820Z,9.57
2019-03-21T21:18:53.191Z,8.90
2019-03-21T21:21:34.474Z,8.37
2019-03-21T21:24:04.673Z,11.87
2019-03-21T21:26:34.690Z,9.80
2019-03-21T21:29:04.597Z,6.97
2019-03-21T21:31:35.156Z,15.60
2019-03-21T21:39:35.443Z,8.20
2019-03-21T21:42:06.296Z,8.20
2019-03-21T21:44:36.197Z,9.43
2019-03-21T21:47:06.184Z,9.37
2019-03-21T21:49:36.113Z,11.17
2019-03-21T21:52:06.065Z,14.93
2019-03-21T21:54:36.053Z,8.43
2019-03-21T21:57:06.255Z,8.33
2019-03-21T21:59:36.346Z,9.73
2019-03-21T22:02:06.308Z,10.77
2019-03-21T22:04:36.217Z,8.37
2019-03-21T22:07:06.127Z,9.57
2019-03-21T22:09:36.153Z,8.90
2019-03-21T22:12:06.250Z,8.27
2019-03-21T22:14:54.931Z,9.87
2019-03-21T22:17:24.945Z,10.53
2019-03-21T22:19:54.868Z,8.30
2019-03-21T22:25:01.022Z,7.47
2019-03-21T22:27:49.678Z,8.93
2019-03-21T22:33:15.276Z,8.87
2019-03-21T22:36:06.572Z,8.63
2019-03-21T22:41:11.892Z,7.50
2019-03-21T22:43:53.173Z,4.17
2019-03-21T22:46:23.102Z,4.80
2019-03-21T22:49:05.494Z,5.47
2019-03-21T22:51:35.424Z,5.23
2019-03-21T22:54:05.497Z,5.50
2019-03-21T22:56:41.115Z,6.17
2019-03-21T22:59:07.203Z,4.23
2019-03-21T23:04:23.897Z,3.80
2019-03-21T23:06:53.826Z,7.17
2019-03-21T23:09:23.790Z,5.40
2019-03-21T23:11:53.723Z,6.70
2019-03-21T23:14:23.820Z,2.93
2019-03-21T23:16:53.735Z,2.33
2019-03-21T23:19:23.652Z,5.93
2019-03-21T23:21:53.628Z,2.93
2019-03-21T23:24:23.562Z,2.63
2019-03-21T23:26:53.474Z,3.67
2019-03-21T23:29:23.488Z,5.33
2019-03-21T23:31:53.427Z,3.77
2019-03-21T23:34:23.398Z,2.07
2019-03-21T23:36:53.385Z,2.77
2019-03-21T23:39:23.378Z,2.23
2019-03-21T23:41:53.346Z,1.87
2019-03-21T23:47:02.287Z,2.03
2019-03-21T23:49:32.383Z,2.60
2019-03-21T23:54:52.919Z,2.37
2019-03-21T23:57:22.888Z,3.77
2019-03-21T23:59:52.810Z,2.23
